Time;durP1;ratioP1;P1;durP2;ratioP2;P2;SDS_P1;SDS_P2;PMS_P1;PMS_P2;Temp;Humidity;BMP_temperature;BMP_pressure;BME280_temperature;BME280_humidity;BME280_pressure;Samples;Min_cycle;Max_cycle;Signal;HPM_P1;HPM_P2
2024/01/20 00:02:20;;;;;;;38.20;23.58;;;1.50;99.90;;;;;;6226891;23;20017;-78
2024/01/20 00:04:48;;;;;;;35.30;22.77;;;1.40;99.90;;;;;;6185693;23;20388;-77
2024/01/20 00:07:15;;;;;;;36.45;24.52;;;1.50;99.90;;;;;;6222689;23;20025;-77
2024/01/20 00:09:43;;;;;;;40.97;25.42;;;1.50;99.90;;;;;;6223206;23;20685;-78
2024/01/20 00:12:10;;;;;;;40.45;26.13;;;1.50;99.90;;;;;;6222776;23;20020;-76
2024/01/20 00:14:39;;;;;;;35.75;24.05;;;1.50;99.90;;;;;;6222864;23;20038;-77
2024/01/20 00:17:07;;;;;;;38.60;24.90;;;1.60;99.90;;;;;;6224600;23;20410;-77
2024/01/20 00:19:35;;;;;;;37.55;24.67;;;1.50;99.90;;;;;;6240203;23;20166;-77
2024/01/20 00:22:03;;;;;;;38.55;25.33;;;1.60;99.90;;;;;;6241538;23;20024;-77
2024/01/20 00:24:31;;;;;;;41.25;25.52;;;1.60;99.90;;;;;;6198513;23;20017;-78
2024/01/20 00:26:58;;;;;;;41.90;27.67;;;1.60;99.90;;;;;;6230968;23;20020;-77
2024/01/20 00:29:25;;;;;;;41.22;28.15;;;1.60;99.90;;;;;;6227307;23;20437;-76
2024/01/20 00:31:53;;;;;;;43.45;27.95;;;1.50;99.90;;;;;;6224798;23;20036;-77
2024/01/20 00:34:22;;;;;;;41.80;26.17;;;1.50;99.90;;;;;;6224539;23;20022;-77
2024/01/20 00:36:49;;;;;;;44.17;27.73;;;1.60;99.90;;;;;;6225067;23;20032;-77
2024/01/20 00:39:16;;;;;;;46.75;29.15;;;1.60;99.90;;;;;;6223138;23;20040;-77
2024/01/20 00:41:44;;;;;;;41.75;27.85;;;1.60;99.90;;;;;;6224390;23;20082;-78
2024/01/20 00:44:11;;;;;;;43.78;28.27;;;1.70;99.90;;;;;;6228790;23;20015;-77
2024/01/20 00:46:39;;;;;;;40.35;27.77;;;1.70;99.90;;;;;;6233670;23;20031;-77
2024/01/20 00:49:06;;;;;;;43.50;27.52;;;1.70;99.90;;;;;;6229679;23;20025;-75
2024/01/20 00:51:35;;;;;;;46.92;28.90;;;1.70;99.90;;;;;;6222692;23;20021;-78
2024/01/20 00:54:03;;;;;;;42.75;27.23;;;1.70;99.90;;;;;;6221481;23;20016;-79
2024/01/20 00:56:30;;;;;;;38.78;26.35;;;1.60;99.90;;;;;;6222436;23;20449;-77
2024/01/20 00:58:58;;;;;;;41.97;25.88;;;1.60;99.90;;;;;;6221755;23;20532;-76
2024/01/20 01:01:25;;;;;;;37.75;24.45;;;1.50;99.90;;;;;;6185881;23;20437;-78
2024/01/20 01:03:53;;;;;;;35.22;24.63;;;1.50;99.90;;;;;;6222176;23;20017;-77
2024/01/20 01:06:20;;;;;;;39.55;25.33;;;1.50;99.90;;;;;;6222228;23;20013;-78
2024/01/20 01:08:49;;;;;;;38.25;24.23;;;1.50;99.90;;;;;;6222208;23;20074;-76
2024/01/20 01:11:16;;;;;;;40.38;24.33;;;1.50;99.90;;;;;;6185425;23;20012;-77
2024/01/20 01:13:44;;;;;;;38.92;24.73;;;1.40;99.90;;;;;;6221755;23;20619;-76
2024/01/20 01:16:13;;;;;;;40.78;24.00;;;1.50;99.90;;;;;;6221966;23;20182;-76
2024/01/20 01:18:40;;;;;;;34.70;21.63;;;1.50;99.90;;;;;;6222233;23;20404;-78
2024/01/20 01:21:08;;;;;;;38.85;22.58;;;1.60;99.90;;;;;;6222053;23;20043;-78
2024/01/20 01:23:36;;;;;;;33.95;20.95;;;1.60;99.90;;;;;;6222085;23;20013;-79
2024/01/20 01:26:05;;;;;;;31.27;19.90;;;1.60;99.90;;;;;;6222897;23;20047;-78
2024/01/20 01:28:32;;;;;;;34.20;21.25;;;1.60;99.90;;;;;;6222383;23;20020;-77
2024/01/20 01:31:00;;;;;;;34.97;21.60;;;1.60;99.90;;;;;;6222723;23;20351;-78
2024/01/20 01:33:27;;;;;;;34.25;21.00;;;1.60;99.90;;;;;;6221876;23;20012;-76
2024/01/20 01:35:55;;;;;;;34.30;19.85;;;1.50;99.90;;;;;;6221515;23;20039;-78
2024/01/20 01:38:22;;;;;;;36.60;21.73;;;1.60;99.90;;;;;;6222203;23;20013;-77
2024/01/20 01:40:50;;;;;;;36.65;20.75;;;1.60;99.90;;;;;;6228298;23;20012;-78
2024/01/20 01:43:18;;;;;;;34.47;21.45;;;1.60;99.90;;;;;;6238461;23;20012;-78
2024/01/20 01:45:46;;;;;;;32.78;20.73;;;1.60;99.90;;;;;;6241128;23;20013;-76
2024/01/20 01:48:14;;;;;;;36.17;20.35;;;1.60;99.90;;;;;;6218627;22;20063;-75
2024/01/20 01:50:42;;;;;;;34.53;20.35;;;1.60;99.90;;;;;;6222750;23;20016;-76
2024/01/20 01:53:11;;;;;;;29.88;18.67;;;1.60;99.90;;;;;;6243540;23;20068;-76
2024/01/20 01:55:39;;;;;;;34.78;20.00;;;1.60;99.90;;;;;;6247842;23;20015;-76
2024/01/20 01:58:07;;;;;;;27.90;17.35;;;1.60;99.90;;;;;;6249002;23;20076;-76
2024/01/20 02:00:37;;;;;;;32.95;18.77;;;1.60;99.90;;;;;;6212150;23;20033;-75
2024/01/20 02:03:05;;;;;;;30.13;19.38;;;1.60;99.90;;;;;;6249241;23;20001;-75
2024/01/20 02:05:32;;;;;;;31.70;17.52;;;1.60;99.90;;;;;;6241729;22;20019;-77
2024/01/20 02:08:00;;;;;;;31.20;18.52;;;1.60;99.90;;;;;;6230805;23;20020;-75
2024/01/20 02:10:27;;;;;;;33.38;19.38;;;1.60;99.90;;;;;;6229364;23;20055;-74
2024/01/20 02:12:55;;;;;;;34.65;20.35;;;1.50;99.90;;;;;;6228490;23;20017;-75
2024/01/20 02:15:23;;;;;;;39.42;23.17;;;1.60;99.90;;;;;;6227919;23;20012;-75
2024/01/20 02:17:54;;;;;;;40.63;23.35;;;1.50;99.90;;;;;;6229685;23;20017;-75
2024/01/20 02:20:22;;;;;;;42.33;23.55;;;1.50;99.90;;;;;;6226502;23;20017;-75
2024/01/20 02:22:50;;;;;;;41.10;24.50;;;1.50;99.90;;;;;;6227227;23;20038;-76
2024/01/20 02:25:18;;;;;;;42.42;23.92;;;1.50;99.90;;;;;;6186674;23;20067;-74
2024/01/20 02:27:45;;;;;;;37.92;23.35;;;1.60;99.90;;;;;;6223433;23;20038;-76
2024/01/20 02:30:13;;;;;;;42.75;24.08;;;1.60;99.90;;;;;;6227334;23;20030;-75
2024/01/20 02:32:41;;;;;;;40.83;24.05;;;1.60;99.90;;;;;;6223787;23;20016;-74
2024/01/20 02:35:09;;;;;;;40.92;25.05;;;1.60;99.90;;;;;;6186908;23;20024;-74
2024/01/20 02:37:38;;;;;;;40.42;24.65;;;1.60;99.90;;;;;;6222473;23;20027;-75
2024/01/20 02:40:08;;;;;;;41.45;25.58;;;1.50;99.90;;;;;;6223246;23;20016;-74
2024/01/20 02:42:36;;;;;;;37.22;24.83;;;1.50;99.90;;;;;;6222517;23;20039;-75
2024/01/20 02:45:05;;;;;;;40.15;24.33;;;1.60;99.90;;;;;;6223556;23;20020;-75
2024/01/20 02:47:32;;;;;;;37.25;25.52;;;1.50;99.90;;;;;;6223777;23;20024;-75
2024/01/20 02:50:00;;;;;;;36.75;24.65;;;1.50;99.90;;;;;;6225921;23;20532;-75
2024/01/20 02:52:27;;;;;;;41.33;27.67;;;1.40;99.90;;;;;;6225438;23;20334;-74
2024/01/20 02:54:55;;;;;;;40.05;25.52;;;1.40;99.90;;;;;;6224728;23;20072;-76
2024/01/20 02:57:25;;;;;;;50.42;29.90;;;1.30;99.90;;;;;;6225579;23;20039;-74
2024/01/20 02:59:52;;;;;;;51.75;32.17;;;1.30;99.90;;;;;;6225081;23;20076;-75
2024/01/20 03:02:20;;;;;;;49.83;31.67;;;1.20;99.90;;;;;;6225812;23;20382;-74
2024/01/20 03:04:47;;;;;;;49.97;30.15;;;1.30;99.90;;;;;;6225442;23;20096;-74
2024/01/20 03:07:15;;;;;;;49.75;30.05;;;1.30;99.90;;;;;;6225671;23;20041;-75
2024/01/20 03:09:42;;;;;;;46.20;29.20;;;1.30;99.90;;;;;;6188146;23;20484;-75
2024/01/20 03:12:10;;;;;;;51.55;30.20;;;1.40;99.90;;;;;;6208289;23;20005;-74
2024/01/20 03:14:39;;;;;;;51.55;30.88;;;1.30;99.90;;;;;;6251079;22;20012;-73
2024/01/20 03:17:06;;;;;;;55.75;31.10;;;1.40;99.90;;;;;;6251325;22;20004;-73
2024/01/20 03:19:34;;;;;;;53.58;32.22;;;1.40;99.90;;;;;;6192651;23;20115;-73
2024/01/20 03:22:01;;;;;;;64.07;37.00;;;1.10;99.90;;;;;;6235957;23;20012;-76
2024/01/20 03:24:29;;;;;;;57.72;35.03;;;1.30;99.90;;;;;;6231359;23;20032;-74
2024/01/20 03:26:56;;;;;;;60.40;35.72;;;1.30;99.90;;;;;;6235125;23;20116;-74
2024/01/20 03:29:24;;;;;;;56.53;31.80;;;1.40;99.90;;;;;;6226437;23;20108;-74
2024/01/20 03:31:53;;;;;;;56.67;31.73;;;1.50;99.90;;;;;;6229873;23;20023;-74
2024/01/20 03:34:22;;;;;;;56.60;33.30;;;1.50;99.90;;;;;;6224747;23;20036;-75
2024/01/20 03:36:50;;;;;;;56.00;33.55;;;1.50;99.90;;;;;;6226731;23;20078;-75
2024/01/20 03:39:17;;;;;;;56.38;34.50;;;1.60;99.90;;;;;;6233688;23;20017;-74
2024/01/20 03:41:45;;;;;;;58.65;34.95;;;1.50;99.90;;;;;;6231763;23;20104;-75
2024/01/20 03:44:13;;;;;;;56.50;33.78;;;1.50;99.90;;;;;;6193682;23;20067;-75
2024/01/20 03:46:40;;;;;;;55.45;35.13;;;1.50;99.90;;;;;;6195298;23;20095;-74
2024/01/20 03:49:09;;;;;;;56.13;33.80;;;1.40;99.90;;;;;;6226646;23;20465;-75
2024/01/20 03:51:37;;;;;;;47.10;31.00;;;1.40;99.90;;;;;;6224902;23;20013;-75
2024/01/20 03:54:04;;;;;;;52.75;32.90;;;1.50;99.90;;;;;;6227332;23;20089;-75
2024/01/20 03:56:32;;;;;;;54.70;31.60;;;1.50;99.90;;;;;;6227906;23;20426;-74
2024/01/20 03:59:00;;;;;;;51.47;31.20;;;1.50;99.90;;;;;;6248625;22;20008;-75
2024/01/20 04:01:27;;;;;;;50.08;32.10;;;1.50;99.90;;;;;;6251186;23;20024;-74
2024/01/20 04:03:55;;;;;;;60.25;35.60;;;1.50;99.90;;;;;;6245332;23;20024;-75
2024/01/20 04:06:24;;;;;;;56.33;34.42;;;1.40;99.90;;;;;;6227116;23;20047;-76
2024/01/20 04:08:51;;;;;;;63.63;38.17;;;1.30;99.90;;;;;;6229120;23;20043;-74
2024/01/20 04:11:19;;;;;;;61.78;35.83;;;1.30;99.90;;;;;;6228629;23;20412;-76
2024/01/20 04:13:46;;;;;;;52.10;29.77;;;1.40;99.90;;;;;;6227314;23;20012;-74
2024/01/20 04:16:14;;;;;;;51.45;31.20;;;1.20;99.90;;;;;;6225657;23;20406;-76
2024/01/20 04:18:41;;;;;;;48.33;29.45;;;1.20;99.90;;;;;;6223601;23;20031;-74
2024/01/20 04:21:09;;;;;;;37.25;22.55;;;1.20;99.90;;;;;;6224540;23;20032;-73
2024/01/20 04:23:38;;;;;;;45.33;26.45;;;0.90;99.90;;;;;;6224199;23;20020;-74
2024/01/20 04:26:05;;;;;;;52.50;34.10;;;0.90;99.90;;;;;;6223925;23;20445;-73
2024/01/20 04:28:33;;;;;;;60.75;37.65;;;0.90;99.90;;;;;;6223401;23;20032;-73
2024/01/20 04:31:00;;;;;;;62.22;36.15;;;0.90;99.90;;;;;;6186882;23;20051;-76
2024/01/20 04:33:28;;;;;;;57.05;36.63;;;1.00;99.90;;;;;;6222894;23;20353;-74
2024/01/20 04:35:55;;;;;;;56.92;37.03;;;1.00;99.90;;;;;;6223477;23;20036;-73
2024/01/20 04:38:23;;;;;;;52.75;35.33;;;1.00;99.90;;;;;;6186418;23;20027;-75
2024/01/20 04:40:53;;;;;;;60.67;36.95;;;1.00;99.90;;;;;;6222979;23;20021;-74
2024/01/20 04:43:20;;;;;;;64.07;38.72;;;1.00;99.90;;;;;;6227306;23;20019;-74
2024/01/20 04:45:48;;;;;;;69.53;42.35;;;1.00;99.90;;;;;;6229973;23;20017;-74
2024/01/20 04:48:16;;;;;;;77.45;44.75;;;1.00;99.90;;;;;;6226766;23;20040;-73
2024/01/20 04:50:43;;;;;;;73.57;43.67;;;0.80;99.90;;;;;;6223886;23;20064;-74
2024/01/20 04:53:11;;;;;;;71.63;44.30;;;0.70;99.90;;;;;;6222636;23;20058;-75
2024/01/20 04:55:38;;;;;;;68.80;42.53;;;0.70;99.90;;;;;;6224453;23;20068;-74
2024/01/20 04:58:07;;;;;;;74.50;45.15;;;0.80;99.90;;;;;;6191703;23;20023;-74
2024/01/20 05:00:36;;;;;;;69.32;43.35;;;0.80;99.90;;;;;;6224704;23;20095;-75
2024/01/20 05:03:05;;;;;;;74.60;45.67;;;0.80;99.90;;;;;;6223230;23;20381;-74
2024/01/20 05:05:32;;;;;;;81.43;47.67;;;0.70;99.90;;;;;;6223426;23;20083;-74
2024/01/20 05:08:00;;;;;;;71.47;45.65;;;0.70;99.90;;;;;;6229091;23;20013;-75
2024/01/20 05:10:27;;;;;;;73.05;46.00;;;0.70;99.90;;;;;;6191471;23;20032;-74
2024/01/20 05:12:55;;;;;;;74.43;45.40;;;0.70;99.90;;;;;;6229808;23;20044;-74
2024/01/20 05:15:24;;;;;;;69.93;44.33;;;0.80;99.90;;;;;;6226126;23;20058;-74
2024/01/20 05:17:52;;;;;;;71.68;46.08;;;0.80;99.90;;;;;;6230216;23;20095;-77
2024/01/20 05:20:19;;;;;;;74.65;46.08;;;0.70;99.90;;;;;;6191149;23;20044;-74
2024/01/20 05:22:47;;;;;;;73.70;44.03;;;0.60;99.90;;;;;;6223685;23;20031;-74
2024/01/20 05:25:15;;;;;;;69.55;41.20;;;0.60;99.90;;;;;;6226982;23;20068;-74
2024/01/20 05:27:43;;;;;;;64.97;41.28;;;0.60;99.90;;;;;;6196388;23;20032;-73
2024/01/20 05:30:11;;;;;;;88.72;50.05;;;0.60;99.90;;;;;;6227598;23;20023;-76
2024/01/20 05:32:42;;;;;;;80.72;49.75;;;0.70;99.90;;;;;;6226060;23;20008;-75
2024/01/20 05:35:10;;;;;;;71.47;45.35;;;0.60;99.90;;;;;;6222768;23;20092;-75
2024/01/20 05:37:37;;;;;;;84.00;45.42;;;0.50;99.90;;;;;;6224304;23;20024;-75
2024/01/20 05:40:06;;;;;;;70.85;40.20;;;0.40;99.90;;;;;;6186719;23;20036;-74
2024/01/20 05:42:33;;;;;;;75.25;42.17;;;0.30;99.90;;;;;;6224436;23;20020;-74
2024/01/20 05:45:01;;;;;;;80.50;42.90;;;0.40;99.90;;;;;;6225213;23;20083;-74
2024/01/20 05:47:28;;;;;;;64.88;40.05;;;0.30;99.90;;;;;;6185383;23;20033;-72
2024/01/20 05:49:57;;;;;;;77.78;45.38;;;0.40;99.90;;;;;;6186974;23;20032;-75
2024/01/20 05:52:25;;;;;;;83.80;46.70;;;0.50;99.90;;;;;;6197402;23;20055;-74
2024/01/20 05:54:52;;;;;;;61.40;39.53;;;0.40;99.90;;;;;;6194480;23;20013;-76
2024/01/20 05:57:20;;;;;;;75.25;42.13;;;0.40;99.90;;;;;;6193527;23;20084;-74
2024/01/20 05:59:47;;;;;;;86.15;46.13;;;0.40;99.90;;;;;;6193389;23;20096;-75
2024/01/20 06:02:15;;;;;;;75.03;46.33;;;0.50;99.90;;;;;;6194046;23;20036;-75
2024/01/20 06:04:42;;;;;;;87.45;52.72;;;0.40;99.90;;;;;;6195029;23;20043;-75
2024/01/20 06:07:11;;;;;;;89.43;54.63;;;0.40;99.90;;;;;;6204769;23;20017;-74
2024/01/20 06:09:39;;;;;;;124.72;63.92;;;0.30;99.90;;;;;;6186128;23;20009;-75
2024/01/20 06:12:07;;;;;;;94.18;55.28;;;0.30;99.90;;;;;;6195664;23;20020;-76
2024/01/20 06:14:35;;;;;;;98.53;57.35;;;0.20;99.90;;;;;;6192335;23;20017;-75
2024/01/20 06:17:03;;;;;;;109.55;60.70;;;0.20;99.90;;;;;;6192390;23;20017;-75
2024/01/20 06:19:31;;;;;;;112.53;59.17;;;0.10;99.90;;;;;;6182109;23;20028;-75
2024/01/20 06:21:58;;;;;;;146.35;82.32;;;0.20;99.90;;;;;;6185844;23;20040;-76
2024/01/20 06:24:27;;;;;;;175.20;91.60;;;0.20;99.90;;;;;;6198425;23;20024;-74
2024/01/20 06:26:55;;;;;;;168.52;88.75;;;0.20;99.90;;;;;;6195433;23;20065;-74
2024/01/20 06:29:22;;;;;;;172.68;89.47;;;0.30;99.90;;;;;;6192338;23;20043;-75
2024/01/20 06:31:50;;;;;;;124.25;68.68;;;0.20;99.90;;;;;;6192569;23;20031;-74
2024/01/20 06:34:17;;;;;;;93.25;55.17;;;0.20;99.90;;;;;;6192923;23;20092;-74
2024/01/20 06:36:45;;;;;;;85.65;50.63;;;0.20;99.90;;;;;;6193168;23;20009;-75
2024/01/20 06:39:12;;;;;;;84.88;51.50;;;0.20;99.90;;;;;;6193706;23;20009;-75
2024/01/20 06:41:45;;;;;;;90.22;56.55;;;0.10;99.90;;;;;;6192973;23;20051;-75
2024/01/20 06:44:13;;;;;;;100.82;61.50;;;0.10;99.90;;;;;;6192482;23;20647;-75
2024/01/20 06:46:40;;;;;;;105.40;61.60;;;0.20;99.90;;;;;;6181025;23;20021;-75
2024/01/20 06:49:08;;;;;;;111.70;67.13;;;0.30;99.90;;;;;;6222872;23;20008;-73
2024/01/20 06:51:35;;;;;;;121.55;75.18;;;0.30;99.90;;;;;;6222957;23;20365;-72
2024/01/20 06:54:03;;;;;;;97.47;63.63;;;0.30;92.50;;;;;;6223751;23;20016;-74
2024/01/20 06:56:31;;;;;;;98.63;59.90;;;0.30;35.00;;;;;;6223135;23;20115;-74
2024/01/20 06:59:00;;;;;;;96.97;60.33;;;0.20;1.00;;;;;;6186976;23;20035;-76
2024/01/20 07:01:28;;;;;;;112.57;66.47;;;0.10;1.00;;;;;;6190310;23;20017;-75
2024/01/20 07:03:55;;;;;;;119.65;72.82;;;0.00;1.00;;;;;;6224117;23;20551;-75
2024/01/20 07:06:24;;;;;;;211.70;120.15;;;-0.10;1.00;;;;;;6227448;23;20039;-74
2024/01/20 07:08:52;;;;;;;179.70;107.65;;;-0.10;1.00;;;;;;6228850;23;20017;-74
2024/01/20 07:11:20;;;;;;;141.88;84.15;;;-0.10;1.00;;;;;;6232493;23;20023;-74
2024/01/20 07:13:47;;;;;;;146.70;87.35;;;0.00;1.00;;;;;;6236207;23;20088;-75
2024/01/20 07:16:17;;;;;;;147.98;91.63;;;-0.10;1.00;;;;;;6225721;23;20017;-76
2024/01/20 07:18:44;;;;;;;183.60;112.50;;;-0.20;1.00;;;;;;6222571;23;20067;-75
2024/01/20 07:21:12;;;;;;;183.10;113.10;;;-0.20;1.00;;;;;;6223140;23;20059;-76
2024/01/20 07:23:40;;;;;;;230.75;135.35;;;-0.20;1.00;;;;;;6221872;23;20012;-76
2024/01/20 07:26:09;;;;;;;280.35;173.27;;;-0.30;1.00;;;;;;6222268;23;20043;-75
2024/01/20 07:28:37;;;;;;;250.45;151.63;;;-0.40;99.90;;;;;;6223445;23;20032;-76
2024/01/20 07:31:05;;;;;;;298.30;190.93;;;-0.50;99.90;;;;;;6187641;23;20028;-75
2024/01/20 07:33:34;;;;;;;288.13;180.93;;;-0.50;99.90;;;;;;6225688;23;20024;-75
2024/01/20 07:36:06;;;;;;;261.73;160.52;;;-0.50;1.00;;;;;;6245295;23;20018;-75
2024/01/20 07:38:34;;;;;;;299.40;181.93;;;-0.50;1.00;;;;;;6242602;23;20024;-74
2024/01/20 07:41:02;;;;;;;189.90;114.15;;;-0.60;99.90;;;;;;6234568;23;20017;-76
2024/01/20 07:43:29;;;;;;;241.73;142.68;;;-0.50;99.90;;;;;;6237522;23;20017;-75
2024/01/20 07:45:57;;;;;;;267.92;162.02;;;-0.50;99.90;;;;;;6226705;23;20043;-75
2024/01/20 07:48:26;;;;;;;206.65;124.75;;;-0.20;99.90;;;;;;6226716;23;20020;-75
2024/01/20 07:50:55;;;;;;;184.80;110.88;;;-0.10;1.00;;;;;;6227138;23;20024;-75
2024/01/20 07:53:23;;;;;;;198.65;119.20;;;-0.10;99.90;;;;;;6228716;23;20008;-75
2024/01/20 07:55:51;;;;;;;203.30;124.43;;;0.00;1.00;;;;;;6189178;23;20013;-74
2024/01/20 07:58:18;;;;;;;213.50;129.10;;;-0.10;1.00;;;;;;6230111;23;20012;-74
2024/01/20 08:00:46;;;;;;;219.38;134.45;;;0.00;99.90;;;;;;6228434;23;20020;-75
2024/01/20 08:03:13;;;;;;;225.48;133.52;;;0.00;1.00;;;;;;6227332;23;20036;-74
2024/01/20 08:05:41;;;;;;;229.85;136.65;;;0.10;1.00;;;;;;6226293;23;20416;-75
2024/01/20 08:08:10;;;;;;;216.60;132.50;;;0.10;1.00;;;;;;6226065;23;20038;-75
2024/01/20 08:10:38;;;;;;;247.77;148.65;;;0.10;99.90;;;;;;6226658;23;20016;-75
2024/01/20 08:13:05;;;;;;;221.18;136.13;;;0.20;99.90;;;;;;6243851;23;20073;-76
2024/01/20 08:15:33;;;;;;;188.18;116.00;;;0.40;1.00;;;;;;6248726;23;20013;-74
2024/01/20 08:18:01;;;;;;;151.13;92.70;;;0.60;1.00;;;;;;6206947;23;20035;-75
2024/01/20 08:20:28;;;;;;;168.70;103.15;;;0.70;1.00;;;;;;6189679;23;20013;-75
2024/01/20 08:22:56;;;;;;;189.95;115.95;;;0.80;64.30;;;;;;6226177;23;20096;-75
2024/01/20 08:25:25;;;;;;;132.50;81.15;;;1.10;1.00;;;;;;6188205;23;20016;-75
2024/01/20 08:27:53;;;;;;;121.63;75.03;;;1.10;1.00;;;;;;6226689;23;20036;-77
2024/01/20 08:30:20;;;;;;;105.97;68.50;;;1.00;1.00;;;;;;6226964;23;20013;-75
2024/01/20 08:32:48;;;;;;;130.13;80.85;;;0.90;1.00;;;;;;6223834;23;20017;-75
2024/01/20 08:35:16;;;;;;;134.73;87.50;;;1.00;1.00;;;;;;6223732;23;20012;-75
2024/01/20 08:37:43;;;;;;;110.35;69.40;;;1.00;1.00;;;;;;6224136;23;20012;-75
2024/01/20 08:40:11;;;;;;;112.22;71.65;;;1.00;1.00;;;;;;6228334;23;20095;-76
2024/01/20 08:42:41;;;;;;;115.63;73.95;;;1.10;1.00;;;;;;6229342;23;20030;-74
2024/01/20 08:45:10;;;;;;;140.30;90.50;;;1.10;1.00;;;;;;6227922;23;20024;-74
2024/01/20 08:47:38;;;;;;;141.77;89.97;;;1.20;1.00;;;;;;6225654;23;20016;-75
2024/01/20 08:50:07;;;;;;;151.38;96.85;;;1.20;1.00;;;;;;6225806;23;20024;-74
2024/01/20 08:52:35;;;;;;;135.65;84.80;;;1.20;1.00;;;;;;6226120;23;20492;-75
2024/01/20 08:55:06;;;;;;;133.55;86.18;;;1.40;1.00;;;;;;6227369;23;20458;-75
2024/01/20 08:57:41;;;;;;;143.77;88.78;;;1.70;99.90;;;;;;6246480;23;20016;-74
2024/01/20 09:00:11;;;;;;;151.15;93.35;;;1.90;1.00;;;;;;6247555;23;20020;-75
2024/01/20 09:02:41;;;;;;;143.95;89.20;;;2.10;1.00;;;;;;6242145;23;20021;-75
2024/01/20 09:05:13;;;;;;;143.18;85.45;;;2.30;99.90;;;;;;6201928;23;20020;-76
2024/01/20 09:07:41;;;;;;;100.90;58.28;;;2.50;99.90;;;;;;6237714;23;20023;-75
2024/01/20 09:10:10;;;;;;;93.22;54.75;;;2.80;57.70;;;;;;6241132;23;20043;-75
2024/01/20 09:12:38;;;;;;;91.85;53.42;;;3.20;1.00;;;;;;6239031;23;20040;-77
2024/01/20 09:15:09;;;;;;;75.22;45.13;;;3.50;1.00;;;;;;6229380;23;20020;-77
2024/01/20 09:17:38;;;;;;;73.82;41.90;;;4.00;1.00;;;;;;6229052;23;20043;-73
2024/01/20 09:20:08;;;;;;;62.92;39.17;;;4.40;99.90;;;;;;6187927;23;20013;-76
2024/01/20 09:22:36;;;;;;;44.50;26.23;;;4.30;1.00;;;;;;6187055;23;20017;-75
2024/01/20 09:25:05;;;;;;;49.95;29.02;;;4.10;99.90;;;;;;6223219;23;20012;-74
2024/01/20 09:27:33;;;;;;;47.22;27.45;;;4.30;1.00;;;;;;6224104;23;20092;-75
2024/01/20 09:30:01;;;;;;;45.58;26.10;;;4.20;99.90;;;;;;6226854;23;20017;-76
2024/01/20 09:32:33;;;;;;;35.28;21.20;;;4.00;99.90;;;;;;6188840;23;20029;-76
2024/01/20 09:35:01;;;;;;;34.25;20.17;;;4.10;1.00;;;;;;6186212;23;20361;-75
2024/01/20 09:37:30;;;;;;;46.78;28.90;;;4.00;99.90;;;;;;6224283;23;20062;-75
2024/01/20 09:40:00;;;;;;;44.00;23.63;;;3.90;99.90;;;;;;6223857;23;20136;-75
2024/01/20 09:42:29;;;;;;;34.72;20.35;;;3.80;1.00;;;;;;6223632;23;20016;-78
2024/01/20 09:44:57;;;;;;;31.15;17.98;;;4.00;1.00;;;;;;6222688;23;20017;-75
2024/01/20 09:47:26;;;;;;;36.83;22.05;;;4.10;99.90;;;;;;6222500;23;20488;-75
2024/01/20 09:49:58;;;;;;;31.40;18.80;;;4.10;99.90;;;;;;6222001;23;20032;-75
2024/01/20 09:52:28;;;;;;;31.42;18.55;;;4.10;1.00;;;;;;6222215;23;20435;-75
2024/01/20 09:55:11;;;;;;;33.72;18.17;;;3.90;1.00;;;;;;6223085;23;20013;-75
2024/01/20 09:57:42;;;;;;;37.17;22.58;;;3.80;66.10;;;;;;6224191;23;20008;-73
2024/01/20 10:00:12;;;;;;;40.55;22.92;;;3.60;99.90;;;;;;6225415;23;20013;-73
2024/01/20 10:02:41;;;;;;;39.05;22.20;;;3.50;1.00;;;;;;6224034;23;20341;-73
2024/01/20 10:05:13;;;;;;;34.20;22.42;;;3.60;1.00;;;;;;6222965;23;20013;-76
2024/01/20 10:07:42;;;;;;;44.28;25.92;;;3.60;91.20;;;;;;6225892;23;20070;-74
2024/01/20 10:10:18;;;;;;;47.08;27.30;;;3.60;1.00;;;;;;6226975;23;20028;-74
2024/01/20 10:12:50;;;;;;;47.08;28.08;;;3.50;1.00;;;;;;6227891;23;20021;-75
2024/01/20 10:15:22;;;;;;;56.67;31.60;;;3.50;99.90;;;;;;6229151;23;20012;-75
2024/01/20 10:17:50;;;;;;;60.30;34.13;;;3.60;99.90;;;;;;6230350;23;20016;-75
2024/01/20 10:20:24;;;;;;;46.67;27.35;;;3.70;1.00;;;;;;6240067;23;20044;-76
2024/01/20 10:22:53;;;;;;;41.47;24.92;;;3.80;99.90;;;;;;6238635;23;20016;-75
2024/01/20 10:25:21;;;;;;;48.45;28.65;;;3.60;99.90;;;;;;6194970;23;20020;-76
2024/01/20 10:27:50;;;;;;;42.22;24.10;;;3.60;99.90;;;;;;6240952;23;19996;-76
2024/01/20 10:30:20;;;;;;;38.35;21.55;;;3.60;1.00;;;;;;6243582;23;20013;-75
2024/01/20 10:32:48;;;;;;;33.38;19.33;;;3.60;1.00;;;;;;6241780;23;20013;-76
2024/01/20 10:35:17;;;;;;;38.58;21.63;;;3.60;1.00;;;;;;6239196;23;20465;-75
2024/01/20 10:37:49;;;;;;;26.25;15.43;;;3.40;1.00;;;;;;6242368;23;20015;-76
2024/01/20 10:40:18;;;;;;;24.85;15.55;;;3.30;1.00;;;;;;6233847;23;20096;-74
2024/01/20 10:42:47;;;;;;;26.42;15.40;;;3.10;99.90;;;;;;6226050;23;20077;-75
2024/01/20 10:45:18;;;;;;;23.45;14.55;;;2.80;1.00;;;;;;6223292;23;20083;-76
2024/01/20 10:47:58;;;;;;;28.02;15.43;;;2.80;1.00;;;;;;6223438;23;20028;-74
2024/01/20 10:50:27;;;;;;;23.02;13.00;;;3.10;1.00;;;;;;6223479;23;20013;-75
2024/01/20 10:52:57;;;;;;;22.27;12.82;;;3.20;1.00;;;;;;6222999;23;20063;-76
2024/01/20 10:55:25;;;;;;;18.88;10.32;;;3.40;16.00;;;;;;6221941;23;20055;-74
2024/01/20 10:57:54;;;;;;;23.35;11.30;;;3.20;99.90;;;;;;6186061;23;20037;-75
2024/01/20 11:00:22;;;;;;;22.10;11.45;;;3.50;1.00;;;;;;6223873;23;20082;-74
2024/01/20 11:02:52;;;;;;;17.58;9.75;;;3.80;99.90;;;;;;6222062;23;20020;-74
2024/01/20 11:05:24;;;;;;;18.60;8.35;;;4.20;99.90;;;;;;6187405;23;20023;-75
2024/01/20 11:08:05;;;;;;;15.45;7.55;;;4.60;43.90;;;;;;6227397;23;20040;-76
2024/01/20 11:10:40;;;;;;;14.02;7.97;;;4.90;1.00;;;;;;6229862;23;20017;-73
2024/01/20 11:13:10;;;;;;;12.27;6.85;;;4.80;1.00;;;;;;6224810;23;20015;-75
2024/01/20 11:15:39;;;;;;;15.02;7.43;;;4.80;1.00;;;;;;6186620;23;20017;-75
2024/01/20 11:18:17;;;;;;;13.80;7.45;;;4.40;1.00;;;;;;6223945;23;20020;-75
2024/01/20 11:20:56;;;;;;;16.40;9.48;;;4.00;1.00;;;;;;6225225;23;20016;-74
2024/01/20 11:23:26;;;;;;;22.65;11.20;;;3.80;1.00;;;;;;6225002;23;20040;-75
2024/01/20 11:25:57;;;;;;;20.58;10.60;;;3.50;1.00;;;;;;6224253;23;20087;-74
2024/01/20 11:28:26;;;;;;;17.88;10.10;;;3.20;1.00;;;;;;6225481;23;20013;-75
2024/01/20 11:30:54;;;;;;;16.70;8.45;;;2.50;1.00;;;;;;6231378;23;20072;-74
2024/01/20 11:33:22;;;;;;;17.27;9.77;;;2.80;1.00;;;;;;6227716;23;20051;-75
2024/01/20 11:35:51;;;;;;;18.17;9.57;;;2.60;1.00;;;;;;6188548;23;20099;-75
2024/01/20 11:38:20;;;;;;;18.98;10.30;;;2.70;1.00;;;;;;6224923;23;20019;-73
2024/01/20 11:40:59;;;;;;;17.63;10.30;;;2.90;1.00;;;;;;6225137;23;20013;-75
2024/01/20 11:43:27;;;;;;;19.83;12.43;;;3.10;1.00;;;;;;6224855;23;20078;-76
2024/01/20 11:45:55;;;;;;;19.55;11.80;;;3.20;1.00;;;;;;6188375;23;20019;-74
2024/01/20 11:48:23;;;;;;;18.40;10.80;;;3.40;1.00;;;;;;6184772;23;20469;-74
2024/01/20 11:50:51;;;;;;;15.07;9.00;;;3.90;1.00;;;;;;6196505;23;20434;-75
2024/01/20 11:53:20;;;;;;;13.77;7.93;;;4.30;1.00;;;;;;6194158;23;20092;-75
2024/01/20 11:55:55;;;;;;;27.27;13.82;;;4.30;1.00;;;;;;6182340;23;20051;-75
2024/01/20 11:58:24;;;;;;;19.60;11.87;;;4.40;1.00;;;;;;6195382;23;20031;-76
2024/01/20 12:00:52;;;;;;;23.67;11.82;;;4.70;1.00;;;;;;6194550;23;20338;-75
2024/01/20 12:03:20;;;;;;;19.90;9.00;;;4.60;1.00;;;;;;6193264;23;20071;-75
2024/01/20 12:05:48;;;;;;;26.50;11.73;;;4.30;1.00;;;;;;6193854;23;20041;-75
2024/01/20 12:08:16;;;;;;;23.40;12.68;;;4.30;1.00;;;;;;6192831;23;20009;-74
2024/01/20 12:10:44;;;;;;;31.42;12.98;;;4.20;1.00;;;;;;6193431;23;20021;-75
2024/01/20 12:13:12;;;;;;;32.63;14.93;;;4.30;1.00;;;;;;6181848;23;20027;-75
2024/01/20 12:15:42;;;;;;;26.70;15.10;;;4.10;1.00;;;;;;6194031;23;20035;-75
2024/01/20 12:18:10;;;;;;;29.30;13.90;;;4.10;1.00;;;;;;6193376;23;20442;-77
2024/01/20 12:20:38;;;;;;;27.70;15.52;;;4.20;1.00;;;;;;6181852;23;20051;-75
2024/01/20 12:23:06;;;;;;;29.15;16.35;;;4.30;1.00;;;;;;6193551;23;20108;-74
2024/01/20 12:25:34;;;;;;;35.50;18.65;;;4.40;1.00;;;;;;6193317;23;20017;-74
2024/01/20 12:28:02;;;;;;;31.35;17.33;;;4.40;1.00;;;;;;6193253;23;20434;-75
2024/01/20 12:30:30;;;;;;;27.20;15.95;;;4.10;1.00;;;;;;6193070;23;20494;-75
2024/01/20 12:32:59;;;;;;;27.65;16.33;;;4.20;1.00;;;;;;6193445;23;20486;-75
2024/01/20 12:35:27;;;;;;;33.38;16.52;;;4.30;1.00;;;;;;6192840;23;20472;-74
2024/01/20 12:37:56;;;;;;;31.08;16.45;;;4.30;1.00;;;;;;6193436;23;20092;-74
2024/01/20 12:40:24;;;;;;;23.77;14.70;;;4.30;1.00;;;;;;6193725;23;20009;-75
2024/01/20 12:42:53;;;;;;;26.52;15.75;;;4.30;1.00;;;;;;6194533;23;20045;-76
2024/01/20 12:45:21;;;;;;;24.88;14.70;;;4.30;1.00;;;;;;6182735;23;20072;-76